createdAt,value
2022-07-27T00:00:28.106Z,28.27
2022-07-27T00:02:58.631Z,37.55
2022-07-27T00:05:28.812Z,19.60
2022-07-27T00:07:58.910Z,18.73
2022-07-27T00:10:29.820Z,18.98
2022-07-27T00:13:00.093Z,19.13
2022-07-27T00:15:30.751Z,19.05
2022-07-27T00:18:02.538Z,19.65
2022-07-27T00:20:33.390Z,17.17
2022-07-27T00:23:04.385Z,13.95
2022-07-27T00:25:34.507Z,14.40
2022-07-27T00:28:05.607Z,15.18
2022-07-27T00:30:36.140Z,16.02
2022-07-27T00:33:07.589Z,17.92
2022-07-27T00:35:38.298Z,18.52
2022-07-27T00:38:09.090Z,19.92
2022-07-27T00:40:39.599Z,14.55
2022-07-27T00:43:10.132Z,17.42
2022-07-27T00:45:40.807Z,16.92
2022-07-27T00:48:11.017Z,57.88
2022-07-27T00:50:44.042Z,39.00
2022-07-27T00:53:15.904Z,30.98
2022-07-27T00:55:47.045Z,17.42
2022-07-27T00:58:17.671Z,34.28
2022-07-27T01:00:48.376Z,27.77
2022-07-27T01:03:18.696Z,14.98
2022-07-27T01:05:54.188Z,16.80
2022-07-27T01:08:24.866Z,26.75
2022-07-27T01:10:55.596Z,24.50
2022-07-27T01:13:28.001Z,15.32
2022-07-27T01:15:58.632Z,13.20
2022-07-27T01:18:33.314Z,12.93
2022-07-27T01:21:04.345Z,17.70
2022-07-27T01:23:36.922Z,13.13
2022-07-27T01:26:09.329Z,16.15
2022-07-27T01:28:40.131Z,16.77
2022-07-27T01:31:10.415Z,14.90
2022-07-27T01:33:40.604Z,15.20
2022-07-27T01:36:12.165Z,15.25
2022-07-27T01:38:42.422Z,13.77
2022-07-27T01:41:13.093Z,12.48
2022-07-27T01:43:44.021Z,16.10
2022-07-27T01:46:14.815Z,13.23
2022-07-27T01:48:46.548Z,13.52
2022-07-27T01:51:20.133Z,12.13
2022-07-27T01:53:50.278Z,20.60
2022-07-27T01:56:20.797Z,15.30
2022-07-27T01:58:51.580Z,12.43
2022-07-27T02:01:22.248Z,14.07
2022-07-27T02:03:52.763Z,14.45
2022-07-27T02:06:23.756Z,10.70
2022-07-27T02:08:54.905Z,11.80
2022-07-27T02:11:45.254Z,10.63
2022-07-27T02:14:15.432Z,17.42
2022-07-27T02:16:46.011Z,12.82
2022-07-27T02:19:17.291Z,12.18
2022-07-27T02:21:49.286Z,28.58
2022-07-27T02:24:20.118Z,16.52
2022-07-27T02:26:50.530Z,13.73
2022-07-27T02:29:21.522Z,14.25
2022-07-27T02:31:51.974Z,11.68
2022-07-27T02:34:22.783Z,18.13
2022-07-27T02:36:52.918Z,30.42
2022-07-27T02:39:23.536Z,13.68
2022-07-27T02:41:54.326Z,10.98
2022-07-27T02:44:24.589Z,13.18
2022-07-27T02:46:55.030Z,13.30
2022-07-27T02:49:26.341Z,12.38
2022-07-27T02:51:56.758Z,18.95
2022-07-27T02:54:27.702Z,14.43
2022-07-27T02:56:59.085Z,9.82
2022-07-27T02:59:29.720Z,11.15
2022-07-27T03:02:00.227Z,12.25
2022-07-27T03:04:30.534Z,9.48
2022-07-27T03:07:01.137Z,10.98
2022-07-27T03:09:33.085Z,12.52
2022-07-27T03:12:04.112Z,11.98
2022-07-27T03:14:34.641Z,12.55
2022-07-27T03:17:05.060Z,16.73
2022-07-27T03:19:35.810Z,10.80
2022-07-27T03:22:06.161Z,11.70
2022-07-27T03:24:36.542Z,11.95
2022-07-27T03:27:07.425Z,12.45
2022-07-27T03:29:39.010Z,13.65
2022-07-27T03:32:09.660Z,11.05
2022-07-27T03:34:40.193Z,15.90
2022-07-27T03:37:11.124Z,14.65
2022-07-27T03:39:41.619Z,12.57
2022-07-27T03:42:11.958Z,12.38
2022-07-27T03:44:42.242Z,13.65
2022-07-27T03:47:12.521Z,13.05
2022-07-27T03:49:43.017Z,14.05
2022-07-27T03:52:17.525Z,11.88
2022-07-27T03:54:48.858Z,14.52
2022-07-27T03:57:19.275Z,13.30
2022-07-27T03:59:49.371Z,11.85
2022-07-27T04:02:19.561Z,14.27
2022-07-27T04:04:50.567Z,15.55
2022-07-27T04:07:21.027Z,13.38
2022-07-27T04:09:51.534Z,13.65
2022-07-27T04:12:21.852Z,15.40
2022-07-27T04:14:52.261Z,13.70
2022-07-27T04:17:54.445Z,10.68
2022-07-27T04:20:13.132Z,11.68
2022-07-27T04:22:45.165Z,12.85
2022-07-27T04:25:15.652Z,12.88
2022-07-27T04:27:45.850Z,11.13
2022-07-27T04:30:16.331Z,16.42
2022-07-27T04:32:46.507Z,15.30
2022-07-27T04:35:16.597Z,18.60
2022-07-27T04:37:58.971Z,10.98
2022-07-27T04:40:35.175Z,10.15
2022-07-27T04:43:07.793Z,11.10
2022-07-27T04:45:38.443Z,12.13
2022-07-27T04:48:12.084Z,13.13
2022-07-27T04:50:46.031Z,10.43
2022-07-27T04:53:17.835Z,12.25
2022-07-27T04:55:49.116Z,10.52
2022-07-27T04:58:19.702Z,12.38
2022-07-27T05:00:50.448Z,10.20
2022-07-27T05:03:20.653Z,9.00
2022-07-27T05:05:51.131Z,9.38
2022-07-27T05:08:22.212Z,12.48
2022-07-27T05:10:52.379Z,11.80
2022-07-27T05:13:23.015Z,11.88
2022-07-27T05:15:54.992Z,9.88
2022-07-27T05:18:27.278Z,10.02
2022-07-27T05:20:57.806Z,12.73
2022-07-27T05:23:28.301Z,10.43
2022-07-27T05:25:58.919Z,11.07
2022-07-27T05:28:29.412Z,10.60
2022-07-27T05:31:00.427Z,10.40
2022-07-27T05:33:30.641Z,11.18
2022-07-27T05:36:00.872Z,10.20
2022-07-27T05:38:33.403Z,13.25
2022-07-27T05:41:03.843Z,11.68
2022-07-27T05:43:34.728Z,11.75
2022-07-27T05:46:04.990Z,12.20
2022-07-27T05:48:35.515Z,12.23
2022-07-27T05:51:05.715Z,11.63
2022-07-27T05:53:37.173Z,10.60
2022-07-27T05:56:09.370Z,9.57
2022-07-27T05:58:39.798Z,9.40
2022-07-27T06:01:10.641Z,11.15
2022-07-27T06:03:41.096Z,12.43
2022-07-27T06:06:30.912Z,11.68
2022-07-27T06:09:03.497Z,12.13
2022-07-27T06:11:36.037Z,10.68
2022-07-27T06:14:06.853Z,10.18
2022-07-27T06:16:37.808Z,11.27
2022-07-27T06:19:08.066Z,15.32
2022-07-27T06:21:38.509Z,9.77
2022-07-27T06:24:09.554Z,9.82
2022-07-27T06:26:39.975Z,9.57
2022-07-27T06:29:10.940Z,9.90
2022-07-27T06:31:42.753Z,9.40
2022-07-27T06:34:14.909Z,10.07
2022-07-27T06:36:46.640Z,9.95
2022-07-27T06:39:16.959Z,15.35
2022-07-27T06:41:47.299Z,9.63
2022-07-27T06:44:17.715Z,10.18
2022-07-27T06:46:48.359Z,9.73
2022-07-27T06:49:19.192Z,10.13
2022-07-27T06:51:49.883Z,9.20
2022-07-27T06:54:20.829Z,8.50
2022-07-27T06:56:51.162Z,9.18
2022-07-27T06:59:21.607Z,9.70
2022-07-27T07:01:52.026Z,10.20
2022-07-27T07:04:23.225Z,8.70
2022-07-27T07:06:55.362Z,11.73
2022-07-27T07:09:25.544Z,10.13
2022-07-27T07:11:55.702Z,12.98
2022-07-27T07:14:27.690Z,20.30
2022-07-27T07:16:58.119Z,11.60
2022-07-27T07:19:28.244Z,9.50
2022-07-27T07:21:58.553Z,10.63
2022-07-27T07:24:29.948Z,9.63
2022-07-27T07:27:00.721Z,9.38
2022-07-27T07:29:30.988Z,9.55
2022-07-27T07:32:01.402Z,8.60
2022-07-27T07:34:32.173Z,9.55
2022-07-27T07:37:02.854Z,9.48
2022-07-27T07:39:33.328Z,9.13
2022-07-27T07:42:03.773Z,8.82
2022-07-27T07:44:35.295Z,8.80
2022-07-27T07:47:05.671Z,9.77
2022-07-27T07:49:38.989Z,9.77
2022-07-27T07:52:10.599Z,14.90
2022-07-27T07:54:40.672Z,15.85
2022-07-27T07:57:11.068Z,17.10
2022-07-27T07:59:42.151Z,17.75
2022-07-27T08:02:12.572Z,17.00
2022-07-27T08:04:42.924Z,7.97
2022-07-27T08:07:13.895Z,10.73
2022-07-27T08:09:46.063Z,8.60
2022-07-27T08:12:16.616Z,7.88
2022-07-27T08:14:46.819Z,7.72
2022-07-27T08:17:18.629Z,11.52
2022-07-27T08:19:48.811Z,7.97
2022-07-27T08:22:19.596Z,9.18
2022-07-27T08:24:50.242Z,9.77
2022-07-27T08:27:20.683Z,8.32
2022-07-27T08:29:51.784Z,8.98
2022-07-27T08:32:22.955Z,9.40
2022-07-27T08:34:59.536Z,10.20
2022-07-27T08:37:29.702Z,9.88
2022-07-27T08:42:51.459Z,13.32
2022-07-27T08:45:25.829Z,14.35
2022-07-27T08:47:56.095Z,13.57
2022-07-27T08:50:26.826Z,9.02
2022-07-27T08:52:58.617Z,9.05
2022-07-27T08:55:30.158Z,9.68
2022-07-27T08:58:03.005Z,10.52
2022-07-27T09:00:37.504Z,10.27
2022-07-27T09:03:08.159Z,9.88
2022-07-27T09:05:44.987Z,9.38
2022-07-27T09:08:16.553Z,8.88
2022-07-27T09:10:47.091Z,11.48
2022-07-27T09:13:37.447Z,9.13
2022-07-27T09:16:19.222Z,9.75
2022-07-27T09:18:51.014Z,9.02
2022-07-27T09:21:22.924Z,9.52
2022-07-27T09:23:54.892Z,8.98
2022-07-27T09:26:32.426Z,10.00
2022-07-27T09:29:05.792Z,8.70
2022-07-27T09:31:43.299Z,9.40
2022-07-27T09:34:14.383Z,9.95
2022-07-27T09:37:09.219Z,10.50
2022-07-27T09:39:40.770Z,9.55
2022-07-27T09:43:05.544Z,9.27
2022-07-27T09:45:32.452Z,8.85
2022-07-27T09:48:11.002Z,10.05
2022-07-27T09:50:58.370Z,12.68
2022-07-27T09:53:44.316Z,9.48
2022-07-27T09:56:17.770Z,9.70
2022-07-27T09:58:50.757Z,10.70
2022-07-27T10:01:23.304Z,9.57
2022-07-27T10:03:54.930Z,10.07
2022-07-27T10:06:25.849Z,10.35
2022-07-27T10:08:57.249Z,9.23
2022-07-27T10:11:28.704Z,13.70
2022-07-27T10:14:01.699Z,10.80
2022-07-27T10:16:34.165Z,12.00
2022-07-27T10:19:24.356Z,13.35
2022-07-27T10:21:54.437Z,12.90
2022-07-27T10:24:35.418Z,13.60
2022-07-27T10:27:25.066Z,14.32
2022-07-27T10:29:56.007Z,14.70
2022-07-27T10:32:34.230Z,14.13
2022-07-27T10:35:04.360Z,15.98
2022-07-27T10:37:36.440Z,16.45
2022-07-27T10:40:28.827Z,15.50
2022-07-27T10:43:13.159Z,15.32
2022-07-27T10:46:00.220Z,14.25
2022-07-27T10:48:44.197Z,14.90
2022-07-27T10:51:18.447Z,14.48
2022-07-27T10:54:22.530Z,15.55
2022-07-27T10:56:50.123Z,15.68
2022-07-27T11:02:41.476Z,19.55
2022-07-27T11:05:53.438Z,15.38
2022-07-27T11:08:35.494Z,14.95
2022-07-27T11:10:54.738Z,21.45
2022-07-27T11:13:26.308Z,18.50
2022-07-27T11:16:23.494Z,21.65
2022-07-27T11:18:57.459Z,16.98
2022-07-27T11:21:29.203Z,23.27
2022-07-27T11:24:08.072Z,21.35
2022-07-27T11:26:43.421Z,21.83
2022-07-27T11:29:14.319Z,19.83
2022-07-27T11:31:55.454Z,17.75
2022-07-27T11:34:30.511Z,20.50
2022-07-27T11:37:03.509Z,14.18
2022-07-27T11:39:59.989Z,17.83
2022-07-27T11:42:25.291Z,25.10
2022-07-27T11:44:55.407Z,20.95
2022-07-27T11:47:27.842Z,33.80
2022-07-27T11:50:07.628Z,26.83
2022-07-27T11:52:37.922Z,31.25
2022-07-27T11:55:09.352Z,18.10
2022-07-27T11:57:44.009Z,17.98
2022-07-27T12:00:14.787Z,15.48
2022-07-27T12:02:51.833Z,16.10
2022-07-27T12:05:22.358Z,19.08
2022-07-27T12:07:53.128Z,20.27
2022-07-27T12:10:24.493Z,21.23
2022-07-27T12:12:55.450Z,23.80
2022-07-27T12:15:45.194Z,17.65
2022-07-27T12:18:16.230Z,18.92
2022-07-27T12:20:50.043Z,20.90
2022-07-27T12:23:20.425Z,22.67
2022-07-27T12:25:50.812Z,23.90
2022-07-27T12:28:27.266Z,21.30
2022-07-27T12:30:57.650Z,24.58
2022-07-27T12:33:30.348Z,22.85
2022-07-27T12:36:01.562Z,27.65
2022-07-27T12:38:45.914Z,28.20
2022-07-27T12:41:39.022Z,53.53
2022-07-27T12:44:11.492Z,58.05
2022-07-27T12:47:25.300Z,38.10
2022-07-27T12:50:17.385Z,27.35
2022-07-27T12:52:50.219Z,27.90
2022-07-27T12:55:21.712Z,56.33
2022-07-27T12:57:56.775Z,53.22
2022-07-27T13:00:33.880Z,52.92
2022-07-27T13:03:05.454Z,48.38
2022-07-27T13:05:36.619Z,43.42
2022-07-27T13:08:07.748Z,43.03
2022-07-27T13:10:41.283Z,45.05
2022-07-27T13:13:11.826Z,36.03
2022-07-27T13:15:41.960Z,35.75
2022-07-27T13:18:12.729Z,161.63
2022-07-27T13:20:43.898Z,44.72
2022-07-27T13:23:14.046Z,37.80
2022-07-27T13:25:44.577Z,41.28
2022-07-27T13:28:15.024Z,39.40
2022-07-27T13:30:45.442Z,44.65
2022-07-27T13:33:16.138Z,40.72
2022-07-27T13:35:47.414Z,43.40
2022-07-27T13:38:30.002Z,42.67
2022-07-27T13:41:00.175Z,40.85
2022-07-27T13:43:30.553Z,36.50
2022-07-27T13:46:00.752Z,40.35
2022-07-27T13:48:31.584Z,39.95
2022-07-27T13:51:02.173Z,45.72
2022-07-27T13:53:32.960Z,41.42
2022-07-27T13:56:04.546Z,41.97
2022-07-27T13:58:34.568Z,42.53
2022-07-27T14:01:07.714Z,47.65
2022-07-27T14:03:38.321Z,42.55
2022-07-27T14:06:09.256Z,43.53
2022-07-27T14:08:40.634Z,42.40
2022-07-27T14:11:12.181Z,41.60
2022-07-27T14:13:43.147Z,38.40
2022-07-27T14:16:14.415Z,43.63
2022-07-27T14:18:45.190Z,40.47
2022-07-27T14:21:16.234Z,36.83
2022-07-27T14:23:47.088Z,37.08
2022-07-27T14:26:17.310Z,34.70
2022-07-27T14:28:48.945Z,79.95
2022-07-27T14:31:18.980Z,31.52
2022-07-27T14:33:49.305Z,32.20
2022-07-27T14:36:19.800Z,28.83
2022-07-27T14:38:50.406Z,24.55
2022-07-27T14:41:20.839Z,28.50
2022-07-27T14:43:50.943Z,28.00
2022-07-27T14:46:20.804Z,26.25
2022-07-27T14:49:07.172Z,25.70
2022-07-27T14:51:38.361Z,22.25
2022-07-27T14:54:09.271Z,22.48
2022-07-27T14:56:40.004Z,20.30
2022-07-27T14:59:10.722Z,20.05
2022-07-27T15:01:42.326Z,21.58
2022-07-27T15:04:12.675Z,19.35
2022-07-27T15:06:43.078Z,23.38
2022-07-27T15:09:13.995Z,22.42
2022-07-27T15:11:44.602Z,20.60
2022-07-27T15:14:15.657Z,18.70
2022-07-27T15:16:46.429Z,20.58
2022-07-27T15:19:18.078Z,18.67
2022-07-27T15:21:48.783Z,18.65
2022-07-27T15:24:19.129Z,25.63
2022-07-27T15:26:49.185Z,25.30
2022-07-27T15:29:19.490Z,26.00
2022-07-27T15:31:51.205Z,21.05
2022-07-27T15:34:21.955Z,18.13
2022-07-27T15:36:52.568Z,18.65
2022-07-27T15:39:24.522Z,19.70
2022-07-27T15:41:54.610Z,19.70
2022-07-27T15:44:24.866Z,15.93
2022-07-27T15:46:55.867Z,16.42
2022-07-27T15:49:26.707Z,17.90
2022-07-27T15:51:57.193Z,16.33
2022-07-27T15:54:31.502Z,18.85
2022-07-27T15:57:04.203Z,20.15
2022-07-27T15:59:34.280Z,16.20
2022-07-27T16:02:04.367Z,38.13
2022-07-27T16:04:35.180Z,18.02
2022-07-27T16:07:05.299Z,20.25
2022-07-27T16:09:35.934Z,17.33
2022-07-27T16:12:06.857Z,19.48
2022-07-27T16:14:38.042Z,20.33
2022-07-27T16:17:08.821Z,17.08
2022-07-27T16:19:39.448Z,19.67
2022-07-27T16:22:09.869Z,18.08
2022-07-27T16:24:40.796Z,18.65
2022-07-27T16:27:11.360Z,17.77
2022-07-27T16:29:41.481Z,22.73
2022-07-27T16:32:13.681Z,18.67
2022-07-27T16:34:43.763Z,20.88
2022-07-27T16:37:14.124Z,22.40
2022-07-27T16:39:44.404Z,20.08
2022-07-27T16:42:14.752Z,18.65
2022-07-27T16:44:44.800Z,23.20
2022-07-27T16:47:15.813Z,21.25
2022-07-27T16:49:46.986Z,22.83
2022-07-27T16:52:17.496Z,25.33
2022-07-27T16:54:47.818Z,24.77
2022-07-27T16:57:18.033Z,26.95
2022-07-27T16:59:48.132Z,24.33
2022-07-27T17:02:18.699Z,27.45
2022-07-27T17:04:49.145Z,28.83
2022-07-27T17:07:19.271Z,30.95
2022-07-27T17:09:49.044Z,28.27
2022-07-27T17:12:19.579Z,25.98
2022-07-27T17:14:53.936Z,29.75
2022-07-27T17:17:24.821Z,28.15
2022-07-27T17:19:55.467Z,27.05
2022-07-27T17:22:26.030Z,27.05
2022-07-27T17:24:56.443Z,27.77
2022-07-27T17:27:26.667Z,33.10
2022-07-27T17:29:56.734Z,29.75
2022-07-27T17:32:26.910Z,27.10
2022-07-27T17:34:57.538Z,29.00
2022-07-27T17:37:38.579Z,28.02
2022-07-27T17:40:18.062Z,26.70
2022-07-27T17:42:48.244Z,28.70
2022-07-27T17:45:18.640Z,27.58
2022-07-27T17:47:48.874Z,27.00
2022-07-27T17:50:19.253Z,30.95
2022-07-27T17:52:49.713Z,30.77
2022-07-27T17:55:20.137Z,25.25
2022-07-27T17:57:50.608Z,26.58
2022-07-27T18:00:21.066Z,28.27
2022-07-27T18:02:51.884Z,30.95
2022-07-27T18:05:22.264Z,26.00
2022-07-27T18:07:54.631Z,27.63
2022-07-27T18:10:25.248Z,27.63
2022-07-27T18:12:55.789Z,26.42
2022-07-27T18:15:46.346Z,24.13
2022-07-27T18:18:21.062Z,22.90
2022-07-27T18:20:53.702Z,23.25
2022-07-27T18:23:25.021Z,23.15
2022-07-27T18:25:55.427Z,23.30
2022-07-27T18:28:25.817Z,23.10
2022-07-27T18:30:56.350Z,25.48
2022-07-27T18:33:27.802Z,24.00
2022-07-27T18:36:07.772Z,24.63
2022-07-27T18:38:37.916Z,23.40
2022-07-27T18:41:08.317Z,26.73
2022-07-27T18:43:38.625Z,24.80
2022-07-27T18:46:08.753Z,24.17
2022-07-27T18:48:39.102Z,27.30
2022-07-27T18:51:09.205Z,29.58
2022-07-27T18:53:39.404Z,27.35
2022-07-27T18:56:10.006Z,26.10
2022-07-27T18:58:41.995Z,22.75
2022-07-27T19:01:12.676Z,23.17
2022-07-27T19:03:43.735Z,20.67
2022-07-27T19:06:17.854Z,22.58
2022-07-27T19:08:49.840Z,23.65
2022-07-27T19:11:20.157Z,26.88
2022-07-27T19:13:50.805Z,24.95
2022-07-27T19:16:21.648Z,26.10
2022-07-27T19:18:52.016Z,25.23
2022-07-27T19:21:22.556Z,24.33
2022-07-27T19:23:53.286Z,24.60
2022-07-27T19:26:23.738Z,27.75
2022-07-27T19:28:54.201Z,26.63
2022-07-27T19:31:26.575Z,27.63
2022-07-27T19:33:57.635Z,24.95
2022-07-27T19:36:27.699Z,25.83
2022-07-27T19:38:58.491Z,24.17
2022-07-27T19:41:28.670Z,27.17
2022-07-27T19:43:58.962Z,25.75
2022-07-27T19:46:29.082Z,24.02
2022-07-27T19:48:59.837Z,22.23
2022-07-27T19:51:30.280Z,29.50
2022-07-27T19:54:00.875Z,27.15
2022-07-27T19:56:36.860Z,25.88
2022-07-27T19:59:08.063Z,28.33
2022-07-27T20:01:38.747Z,25.98
2022-07-27T20:04:10.855Z,26.92
2022-07-27T20:06:41.033Z,28.95
2022-07-27T20:09:11.400Z,29.80
2022-07-27T20:11:41.821Z,31.70
2022-07-27T20:14:12.707Z,30.90
2022-07-27T20:16:43.443Z,33.08
2022-07-27T20:19:14.228Z,33.35
2022-07-27T20:21:46.131Z,31.50
2022-07-27T20:24:16.338Z,30.38
2022-07-27T20:26:49.149Z,26.52
2022-07-27T20:29:20.244Z,26.55
2022-07-27T20:31:51.630Z,31.65
2022-07-27T20:34:22.306Z,31.30
2022-07-27T20:36:52.573Z,32.45
2022-07-27T20:39:23.191Z,28.27
2022-07-27T20:41:53.951Z,27.58
2022-07-27T20:44:24.111Z,28.40
2022-07-27T20:46:54.197Z,26.23
2022-07-27T20:49:24.604Z,31.23
2022-07-27T20:51:55.267Z,27.52
2022-07-27T20:54:27.269Z,26.83
2022-07-27T20:57:03.074Z,30.75
2022-07-27T20:59:34.620Z,29.80
2022-07-27T21:02:04.890Z,32.67
2022-07-27T21:04:35.799Z,29.77
2022-07-27T21:07:06.296Z,31.42
2022-07-27T21:09:37.425Z,31.80
2022-07-27T21:12:10.467Z,32.83
2022-07-27T21:14:40.892Z,34.83
2022-07-27T21:17:11.695Z,34.58
2022-07-27T21:19:42.236Z,34.17
2022-07-27T21:22:12.399Z,33.70
2022-07-27T21:24:42.340Z,33.35
2022-07-27T21:27:14.965Z,29.95
2022-07-27T21:29:45.593Z,31.50
2022-07-27T21:32:16.169Z,27.63
2022-07-27T21:34:47.070Z,29.48
2022-07-27T21:37:17.818Z,31.20
2022-07-27T21:39:48.120Z,29.95
2022-07-27T21:42:18.536Z,30.58
2022-07-27T21:44:48.711Z,31.70
2022-07-27T21:47:19.434Z,30.35
2022-07-27T21:49:50.047Z,31.17
2022-07-27T21:52:20.513Z,29.88
2022-07-27T21:54:51.449Z,31.52
2022-07-27T21:57:21.929Z,30.67
2022-07-27T21:59:52.603Z,28.83
2022-07-27T22:02:22.751Z,31.95
2022-07-27T22:04:58.392Z,30.73
2022-07-27T22:07:28.939Z,33.30
2022-07-27T22:09:59.422Z,32.83
2022-07-27T22:12:30.892Z,33.88
2022-07-27T22:15:01.284Z,34.30
2022-07-27T22:17:32.076Z,34.70
2022-07-27T22:20:02.244Z,35.22
2022-07-27T22:22:32.325Z,35.42
2022-07-27T22:25:03.838Z,31.33
2022-07-27T22:27:34.705Z,30.58
2022-07-27T22:30:05.487Z,33.03
2022-07-27T22:32:35.987Z,33.55
2022-07-27T22:35:06.217Z,32.65
2022-07-27T22:37:36.781Z,36.05
2022-07-27T22:40:07.360Z,37.85
2022-07-27T22:42:37.494Z,38.05
2022-07-27T22:45:08.243Z,38.88
2022-07-27T22:47:39.742Z,37.08
2022-07-27T22:50:13.452Z,37.42
2022-07-27T22:52:48.939Z,34.75
2022-07-27T22:55:20.328Z,33.60
2022-07-27T22:57:51.387Z,39.13
2022-07-27T23:00:22.776Z,37.95
2022-07-27T23:02:52.872Z,34.20
2022-07-27T23:05:23.033Z,33.88
2022-07-27T23:07:53.514Z,34.83
2022-07-27T23:10:43.217Z,34.20
2022-07-27T23:13:14.311Z,41.97
2022-07-27T23:15:45.180Z,43.55
2022-07-27T23:18:16.242Z,41.70
2022-07-27T23:20:46.707Z,43.30
2022-07-27T23:23:17.110Z,37.17
2022-07-27T23:25:47.890Z,36.03
2022-07-27T23:28:19.377Z,36.92
2022-07-27T23:30:49.501Z,38.65
2022-07-27T23:33:20.151Z,39.25
2022-07-27T23:35:50.703Z,37.47
2022-07-27T23:38:21.167Z,37.85
2022-07-27T23:40:52.255Z,40.28
2022-07-27T23:43:22.300Z,46.30
2022-07-27T23:45:52.765Z,53.97
2022-07-27T23:48:25.054Z,46.00
2022-07-27T23:50:56.105Z,46.17
2022-07-27T23:53:26.827Z,44.90
2022-07-27T23:55:57.190Z,44.20
2022-07-27T23:58:27.663Z,40.05
